Terminal Aerodrome Forecast
Issued by NWS

Home | Current Version | Previous Version | Text Only | Print | Product List | Glossary On
Versions: 1 2 3 4 5 6 7 8 9 10 11 12 13 14 15 16 17 18 19 20 21 22 23 24
000
FTUS42 KFFC 011734
TAFFTY
TAF
KFTY 011734Z 0118/0218 31006KT P6SM FEW250
     FM012100 28004KT P6SM FEW050
     FM020200 VRB03KT P6SM SKC
     FM020600 10005KT P6SM BKN012
     FM020900 11007KT 3SM BR BKN007
     FM021500 12008KT P6SM BKN015
     FM021700 14010KT P6SM BKN025=

USA.gov is the U.S. government's official web portal to all federal, state and local government web resources and services.